sensor_id;sensor_type;location;lat;lon;timestamp;pressure;altitude;pressure_sealevel;temperature;humidity
69245;BME280;56357;52.304;4.870;2023-02-28T00:02:23;103455.28;;;16.98;49.43
69245;BME280;56357;52.304;4.870;2023-02-28T00:04:49;103454.66;;;17.03;49.50
69245;BME280;56357;52.304;4.870;2023-02-28T00:07:18;103458.94;;;16.99;48.90
69245;BME280;56357;52.304;4.870;2023-02-28T00:09:45;103453.34;;;16.99;49.22
69245;BME280;56357;52.304;4.870;2023-02-28T00:12:12;103453.13;;;16.94;49.26
69245;BME280;56357;52.304;4.870;2023-02-28T00:14:38;103464.72;;;16.91;49.47
69245;BME280;56357;52.304;4.870;2023-02-28T00:17:04;103451.81;;;16.96;49.25
69245;BME280;56357;52.304;4.870;2023-02-28T00:19:31;103451.41;;;16.99;49.29
69245;BME280;56357;52.304;4.870;2023-02-28T00:21:57;103455.72;;;16.95;49.13
69245;BME280;56357;52.304;4.870;2023-02-28T00:24:24;103450.06;;;16.89;49.37
69245;BME280;56357;52.304;4.870;2023-02-28T00:26:50;103445.56;;;16.88;49.18
69245;BME280;56357;52.304;4.870;2023-02-28T00:29:17;103455.28;;;16.92;49.11
69245;BME280;56357;52.304;4.870;2023-02-28T00:31:43;103453.97;;;16.88;48.98
69245;BME280;56357;52.304;4.870;2023-02-28T00:34:09;103457.16;;;16.85;49.27
69245;BME280;56357;52.304;4.870;2023-02-28T00:36:36;103452.69;;;16.90;49.14
69245;BME280;56357;52.304;4.870;2023-02-28T00:39:03;103461.50;;;16.87;48.71
69245;BME280;56357;52.304;4.870;2023-02-28T00:41:29;103454.19;;;16.86;49.07
69245;BME280;56357;52.304;4.870;2023-02-28T00:43:56;103456.09;;;16.86;49.12
69245;BME280;56357;52.304;4.870;2023-02-28T00:46:22;103458.91;;;16.86;49.00
69245;BME280;56357;52.304;4.870;2023-02-28T00:48:48;103445.78;;;16.86;49.07
69245;BME280;56357;52.304;4.870;2023-02-28T00:51:15;103452.66;;;16.84;48.96
69245;BME280;56357;52.304;4.870;2023-02-28T00:53:41;103447.06;;;16.84;48.80
69245;BME280;56357;52.304;4.870;2023-02-28T00:56:08;103453.28;;;16.79;49.03
69245;BME280;56357;52.304;4.870;2023-02-28T00:58:34;103447.66;;;16.79;48.83
69245;BME280;56357;52.304;4.870;2023-02-28T01:01:00;103445.75;;;16.80;48.84
69245;BME280;56357;52.304;4.870;2023-02-28T01:03:27;103449.41;;;16.80;48.93
69245;BME280;56357;52.304;4.870;2023-02-28T01:05:53;103447.00;;;16.77;48.91
69245;BME280;56357;52.304;4.870;2023-02-28T01:08:20;103446.84;;;16.79;48.93
69245;BME280;56357;52.304;4.870;2023-02-28T01:10:47;103451.78;;;16.77;49.22
69245;BME280;56357;52.304;4.870;2023-02-28T01:13:14;103456.28;;;16.78;48.86
69245;BME280;56357;52.304;4.870;2023-02-28T01:15:44;103455.88;;;16.81;48.87
69245;BME280;56357;52.304;4.870;2023-02-28T01:18:11;103452.44;;;16.79;48.60
69245;BME280;56357;52.304;4.870;2023-02-28T01:20:38;103452.19;;;16.74;48.78
69245;BME280;56357;52.304;4.870;2023-02-28T01:23:05;103443.78;;;16.74;48.76
69245;BME280;56357;52.304;4.870;2023-02-28T01:25:34;103441.41;;;16.71;49.03
69245;BME280;56357;52.304;4.870;2023-02-28T01:28:01;103446.78;;;16.72;48.64
69245;BME280;56357;52.304;4.870;2023-02-28T01:30:27;103439.50;;;16.71;49.01
69245;BME280;56357;52.304;4.870;2023-02-28T01:32:54;103437.09;;;16.68;48.77
69245;BME280;56357;52.304;4.870;2023-02-28T01:35:20;103439.66;;;16.70;48.61
69245;BME280;56357;52.304;4.870;2023-02-28T01:37:47;103435.38;;;16.67;48.76
69245;BME280;56357;52.304;4.870;2023-02-28T01:40:13;103442.06;;;16.73;48.61
69245;BME280;56357;52.304;4.870;2023-02-28T01:42:40;103427.81;;;16.68;49.09
69245;BME280;56357;52.304;4.870;2023-02-28T01:45:28;103430.84;;;16.66;48.79
69245;BME280;56357;52.304;4.870;2023-02-28T01:48:01;103436.22;;;16.68;48.62
69245;BME280;56357;52.304;4.870;2023-02-28T01:50:32;103432.09;;;16.64;48.74
69245;BME280;56357;52.304;4.870;2023-02-28T01:53:04;103425.66;;;16.63;48.80
69245;BME280;56357;52.304;4.870;2023-02-28T01:55:33;103437.31;;;16.67;48.85
69245;BME280;56357;52.304;4.870;2023-02-28T01:58:02;103433.63;;;16.60;48.59
69245;BME280;56357;52.304;4.870;2023-02-28T02:00:29;103433.63;;;16.60;48.75
69245;BME280;56357;52.304;4.870;2023-02-28T02:02:58;103431.22;;;16.57;48.89
69245;BME280;56357;52.304;4.870;2023-02-28T02:05:28;103427.38;;;16.58;48.96
69245;BME280;56357;52.304;4.870;2023-02-28T02:08:00;103430.19;;;16.64;48.77
69245;BME280;56357;52.304;4.870;2023-02-28T02:10:54;103429.31;;;16.57;48.73
69245;BME280;56357;52.304;4.870;2023-02-28T02:19:01;103409.72;;;16.57;48.34
69245;BME280;56357;52.304;4.870;2023-02-28T02:22:12;103407.97;;;16.56;48.57
69245;BME280;56357;52.304;4.870;2023-02-28T02:27:59;103400.88;;;16.54;48.65
69245;BME280;56357;52.304;4.870;2023-02-28T02:30:38;103403.03;;;16.52;48.78
69245;BME280;56357;52.304;4.870;2023-02-28T02:33:25;103400.88;;;16.54;48.70
69245;BME280;56357;52.304;4.870;2023-02-28T02:36:05;103405.59;;;16.53;48.48
69245;BME280;56357;52.304;4.870;2023-02-28T02:38:51;103400.88;;;16.54;48.63
69245;BME280;56357;52.304;4.870;2023-02-28T02:41:51;103400.44;;;16.50;48.63
69245;BME280;56357;52.304;4.870;2023-02-28T02:44:42;103406.22;;;16.48;48.46
69245;BME280;56357;52.304;4.870;2023-02-28T02:47:17;103405.75;;;16.45;48.80
69245;BME280;56357;52.304;4.870;2023-02-28T02:49:51;103406.63;;;16.45;48.67
69245;BME280;56357;52.304;4.870;2023-02-28T02:52:22;103407.00;;;16.42;48.76
69245;BME280;56357;52.304;4.870;2023-02-28T02:54:52;103404.69;;;16.46;48.66
69245;BME280;56357;52.304;4.870;2023-02-28T02:57:33;103405.75;;;16.45;48.65
69245;BME280;56357;52.304;4.870;2023-02-28T03:00:03;103397.13;;;16.46;48.80
69245;BME280;56357;52.304;4.870;2023-02-28T03:02:34;103405.16;;;16.50;48.55
69245;BME280;56357;52.304;4.870;2023-02-28T03:05:12;103398.75;;;16.56;48.75
69245;BME280;56357;52.304;4.870;2023-02-28T03:07:40;103401.28;;;16.51;48.70
69245;BME280;56357;52.304;4.870;2023-02-28T03:10:32;103403.03;;;16.58;48.64
69245;BME280;56357;52.304;4.870;2023-02-28T03:21:45;103401.97;;;16.59;48.66
69245;BME280;56357;52.304;4.870;2023-02-28T03:24:43;103406.69;;;16.59;48.91
69245;BME280;56357;52.304;4.870;2023-02-28T03:27:23;103397.69;;;16.63;48.90
69245;BME280;56357;52.304;4.870;2023-02-28T03:29:58;103393.16;;;16.56;48.95
69245;BME280;56357;52.304;4.870;2023-02-28T03:35:11;103396.00;;;16.69;48.80
69245;BME280;56357;52.304;4.870;2023-02-28T03:37:42;103393.41;;;16.67;48.96
69245;BME280;56357;52.304;4.870;2023-02-28T03:40:15;103392.97;;;16.70;48.79
69245;BME280;56357;52.304;4.870;2023-02-28T03:42:45;103389.25;;;16.57;48.85
69245;BME280;56357;52.304;4.870;2023-02-28T03:45:20;103397.13;;;16.40;49.70
69245;BME280;56357;52.304;4.870;2023-02-28T03:48:02;103399.41;;;16.58;49.12
69245;BME280;56357;52.304;4.870;2023-02-28T03:50:37;103392.72;;;16.59;49.00
69245;BME280;56357;52.304;4.870;2023-02-28T03:53:10;103406.75;;;16.72;49.08
69245;BME280;56357;52.304;4.870;2023-02-28T03:55:42;103409.31;;;16.67;48.68
69245;BME280;56357;52.304;4.870;2023-02-28T04:00:49;103409.16;;;16.75;48.85
69245;BME280;56357;52.304;4.870;2023-02-28T04:03:18;103413.84;;;16.68;48.95
69245;BME280;56357;52.304;4.870;2023-02-28T04:05:55;103411.25;;;16.60;49.33
69245;BME280;56357;52.304;4.870;2023-02-28T04:08:22;103412.47;;;16.51;49.39
69245;BME280;56357;52.304;4.870;2023-02-28T04:11:16;103404.78;;;16.66;49.23
69245;BME280;56357;52.304;4.870;2023-02-28T04:13:44;103399.00;;;16.67;48.94
69245;BME280;56357;52.304;4.870;2023-02-28T04:16:10;103405.97;;;16.43;49.70
69245;BME280;56357;52.304;4.870;2023-02-28T04:18:41;103406.88;;;16.51;49.58
69245;BME280;56357;52.304;4.870;2023-02-28T04:21:09;103400.50;;;16.63;49.03
69245;BME280;56357;52.304;4.870;2023-02-28T04:23:36;103403.28;;;16.63;49.61
69245;BME280;56357;52.304;4.870;2023-02-28T04:26:03;103399.41;;;16.58;49.51
69245;BME280;56357;52.304;4.870;2023-02-28T04:28:30;103406.91;;;16.57;49.64
69245;BME280;56357;52.304;4.870;2023-02-28T04:31:03;103406.25;;;16.55;49.47
69245;BME280;56357;52.304;4.870;2023-02-28T04:33:31;103397.25;;;16.66;49.22
69245;BME280;56357;52.304;4.870;2023-02-28T04:36:03;103396.59;;;16.58;49.22
69245;BME280;56357;52.304;4.870;2023-02-28T04:38:33;103401.16;;;16.65;49.20
69245;BME280;56357;52.304;4.870;2023-02-28T04:40:59;103400.22;;;16.58;49.13
69245;BME280;56357;52.304;4.870;2023-02-28T04:43:27;103391.53;;;16.46;49.73
69245;BME280;56357;52.304;4.870;2023-02-28T04:45:55;103398.47;;;16.51;49.72
69245;BME280;56357;52.304;4.870;2023-02-28T04:48:27;103391.84;;;16.58;49.46
69245;BME280;56357;52.304;4.870;2023-02-28T04:50:54;103400.50;;;16.63;49.18
69245;BME280;56357;52.304;4.870;2023-02-28T04:53:21;103395.72;;;16.57;49.61
69245;BME280;56357;52.304;4.870;2023-02-28T04:55:47;103402.41;;;16.63;49.36
69245;BME280;56357;52.304;4.870;2023-02-28T04:58:14;103407.34;;;16.61;49.34
69245;BME280;56357;52.304;4.870;2023-02-28T05:00:41;103397.66;;;16.57;49.28
69245;BME280;56357;52.304;4.870;2023-02-28T05:03:07;103394.84;;;16.57;49.47
69245;BME280;56357;52.304;4.870;2023-02-28T05:05:34;103388.69;;;16.74;48.94
69245;BME280;56357;52.304;4.870;2023-02-28T05:08:01;103391.44;;;16.68;49.09
69245;BME280;56357;52.304;4.870;2023-02-28T05:10:27;103389.13;;;16.71;49.10
69245;BME280;56357;52.304;4.870;2023-02-28T05:12:54;103393.66;;;16.79;48.99
69245;BME280;56357;52.304;4.870;2023-02-28T05:15:21;103393.00;;;16.77;49.23
69245;BME280;56357;52.304;4.870;2023-02-28T05:17:47;103390.13;;;16.64;49.44
69245;BME280;56357;52.304;4.870;2023-02-28T05:20:14;103398.56;;;16.70;49.08
69245;BME280;56357;52.304;4.870;2023-02-28T05:22:41;103397.72;;;16.76;49.05
69245;BME280;56357;52.304;4.870;2023-02-28T05:25:11;103390.78;;;16.66;49.67
69245;BME280;56357;52.304;4.870;2023-02-28T05:27:38;103384.97;;;16.61;49.65
69245;BME280;56357;52.304;4.870;2023-02-28T05:30:06;103381.81;;;16.77;49.15
69245;BME280;56357;52.304;4.870;2023-02-28T05:32:38;103393.41;;;16.74;49.38
69245;BME280;56357;52.304;4.870;2023-02-28T05:35:09;103393.84;;;16.71;49.31
69245;BME280;56357;52.304;4.870;2023-02-28T05:37:36;103401.59;;;16.75;49.37
69245;BME280;56357;52.304;4.870;2023-02-28T05:40:05;103403.03;;;16.58;49.46
69245;BME280;56357;52.304;4.870;2023-02-28T05:42:33;103411.69;;;16.63;49.43
69245;BME280;56357;52.304;4.870;2023-02-28T05:44:59;103419.25;;;16.69;49.52
69245;BME280;56357;52.304;4.870;2023-02-28T05:47:26;103414.53;;;16.76;49.46
69245;BME280;56357;52.304;4.870;2023-02-28T05:49:52;103415.56;;;16.75;49.53
69245;BME280;56357;52.304;4.870;2023-02-28T05:52:19;103418.59;;;16.74;49.24
69245;BME280;56357;52.304;4.870;2023-02-28T05:54:46;103420.91;;;16.57;50.47
69245;BME280;56357;52.304;4.870;2023-02-28T05:57:13;103417.00;;;16.52;49.92
69245;BME280;56357;52.304;4.870;2023-02-28T05:59:39;103412.81;;;16.82;49.83
69245;BME280;56357;52.304;4.870;2023-02-28T06:02:13;103406.78;;;16.85;49.34
69245;BME280;56357;52.304;4.870;2023-02-28T06:04:41;103407.19;;;16.75;49.89
69245;BME280;56357;52.304;4.870;2023-02-28T06:07:08;103401.81;;;16.74;50.14
69245;BME280;56357;52.304;4.870;2023-02-28T06:09:35;103414.69;;;16.68;49.99
69245;BME280;56357;52.304;4.870;2023-02-28T06:12:04;103414.09;;;16.73;50.12
69245;BME280;56357;52.304;4.870;2023-02-28T06:14:33;103411.03;;;16.68;50.27
69245;BME280;56357;52.304;4.870;2023-02-28T06:17:00;103418.81;;;16.72;50.25
69245;BME280;56357;52.304;4.870;2023-02-28T06:19:27;103421.25;;;16.88;49.84
69245;BME280;56357;52.304;4.870;2023-02-28T06:21:56;103421.00;;;16.83;49.78
69245;BME280;56357;52.304;4.870;2023-02-28T06:24:24;103421.22;;;16.82;49.93
69245;BME280;56357;52.304;4.870;2023-02-28T06:26:53;103425.75;;;16.83;50.27
69245;BME280;56357;52.304;4.870;2023-02-28T06:29:19;103431.31;;;16.76;50.18
69245;BME280;56357;52.304;4.870;2023-02-28T06:31:46;103425.34;;;16.99;49.56
69245;BME280;56357;52.304;4.870;2023-02-28T06:34:13;103435.25;;;16.88;49.79
69245;BME280;56357;52.304;4.870;2023-02-28T06:36:41;103427.91;;;16.87;49.98
69245;BME280;56357;52.304;4.870;2023-02-28T06:39:08;103435.81;;;16.71;50.75
69245;BME280;56357;52.304;4.870;2023-02-28T06:41:35;103438.66;;;16.84;49.98
69245;BME280;56357;52.304;4.870;2023-02-28T06:44:10;103432.59;;;16.74;50.25
69245;BME280;56357;52.304;4.870;2023-02-28T06:46:41;103437.13;;;16.81;50.21
69245;BME280;56357;52.304;4.870;2023-02-28T06:49:09;103433.41;;;16.61;51.24
69245;BME280;56357;52.304;4.870;2023-02-28T06:51:38;103438.75;;;16.56;51.04
69245;BME280;56357;52.304;4.870;2023-02-28T06:54:05;103449.56;;;16.66;51.10
69245;BME280;56357;52.304;4.870;2023-02-28T06:56:34;103454.56;;;16.83;52.44
69245;BME280;56357;52.304;4.870;2023-02-28T06:59:01;103450.25;;;16.74;51.55
69245;BME280;56357;52.304;4.870;2023-02-28T07:01:28;103463.81;;;16.77;52.03
69245;BME280;56357;52.304;4.870;2023-02-28T07:03:56;103456.78;;;16.94;50.64
69245;BME280;56357;52.304;4.870;2023-02-28T07:06:23;103463.22;;;16.88;50.92
69245;BME280;56357;52.304;4.870;2023-02-28T07:08:51;103467.91;;;16.75;51.67
69245;BME280;56357;52.304;4.870;2023-02-28T07:11:19;103465.06;;;16.62;51.95
69245;BME280;56357;52.304;4.870;2023-02-28T07:13:47;103464.94;;;16.83;51.32
69245;BME280;56357;52.304;4.870;2023-02-28T07:16:14;103457.81;;;16.87;51.31
69245;BME280;56357;52.304;4.870;2023-02-28T07:18:40;103460.00;;;16.91;51.07
69245;BME280;56357;52.304;4.870;2023-02-28T07:21:09;103468.81;;;16.88;51.79
69245;BME280;56357;52.304;4.870;2023-02-28T07:23:36;103474.88;;;16.92;52.00
69245;BME280;56357;52.304;4.870;2023-02-28T07:26:05;103470.66;;;17.22;50.99
69245;BME280;56357;52.304;4.870;2023-02-28T07:28:32;103468.88;;;17.08;50.58
69245;BME280;56357;52.304;4.870;2023-02-28T07:31:06;103469.47;;;16.97;50.53
69245;BME280;56357;52.304;4.870;2023-02-28T07:33:33;103471.41;;;16.96;50.78
69245;BME280;56357;52.304;4.870;2023-02-28T07:36:05;103468.44;;;16.98;50.31
69245;BME280;56357;52.304;4.870;2023-02-28T07:38:35;103471.84;;;16.93;50.08
69245;BME280;56357;52.304;4.870;2023-02-28T07:41:03;103486.06;;;16.92;49.86
69245;BME280;56357;52.304;4.870;2023-02-28T07:43:31;103480.22;;;16.87;50.37
69245;BME280;56357;52.304;4.870;2023-02-28T07:46:06;103483.09;;;17.00;49.90
69245;BME280;56357;52.304;4.870;2023-02-28T07:48:32;103483.25;;;16.92;49.81
69245;BME280;56357;52.304;4.870;2023-02-28T07:50:59;103480.47;;;16.92;49.62
69245;BME280;56357;52.304;4.870;2023-02-28T07:53:27;103474.03;;;16.98;49.10
69245;BME280;56357;52.304;4.870;2023-02-28T07:55:58;103475.53;;;16.94;49.56
69245;BME280;56357;52.304;4.870;2023-02-28T07:58:25;103480.69;;;16.90;49.07
69245;BME280;56357;52.304;4.870;2023-02-28T08:00:52;103480.63;;;16.84;51.06
69245;BME280;56357;52.304;4.870;2023-02-28T08:03:19;103478.72;;;16.84;50.40
69245;BME280;56357;52.304;4.870;2023-02-28T08:05:46;103476.34;;;16.88;50.54
69245;BME280;56357;52.304;4.870;2023-02-28T08:08:15;103481.56;;;16.97;50.22
69245;BME280;56357;52.304;4.870;2023-02-28T08:10:42;103491.47;;;17.00;49.88
69245;BME280;56357;52.304;4.870;2023-02-28T08:13:09;103492.13;;;17.02;49.76
69245;BME280;56357;52.304;4.870;2023-02-28T08:15:35;103487.38;;;16.96;50.17
69245;BME280;56357;52.304;4.870;2023-02-28T08:18:02;103486.53;;;17.02;50.19
69245;BME280;56357;52.304;4.870;2023-02-28T08:20:28;103474.88;;;16.92;50.78
69245;BME280;56357;52.304;4.870;2023-02-28T08:22:55;103482.59;;;16.90;50.93
69245;BME280;56357;52.304;4.870;2023-02-28T08:25:22;103477.63;;;16.85;51.36
69245;BME280;56357;52.304;4.870;2023-02-28T08:27:51;103486.91;;;16.86;51.54
69245;BME280;56357;52.304;4.870;2023-02-28T08:30:18;103481.47;;;16.78;51.48
69245;BME280;56357;52.304;4.870;2023-02-28T08:32:44;103479.09;;;16.75;51.29
69245;BME280;56357;52.304;4.870;2023-02-28T08:35:11;103482.22;;;16.99;51.21
69245;BME280;56357;52.304;4.870;2023-02-28T08:37:37;103485.91;;;17.19;51.28
69245;BME280;56357;52.304;4.870;2023-02-28T08:40:04;103462.03;;;17.30;50.80
69245;BME280;56357;52.304;4.870;2023-02-28T08:42:32;103459.69;;;17.47;51.06
69245;BME280;56357;52.304;4.870;2023-02-28T08:44:58;103458.84;;;17.46;51.25
69245;BME280;56357;52.304;4.870;2023-02-28T08:47:25;103463.81;;;17.51;50.71
69245;BME280;56357;52.304;4.870;2023-02-28T08:49:51;103468.09;;;17.33;51.14
69245;BME280;56357;52.304;4.870;2023-02-28T08:52:18;103476.06;;;17.30;51.07
69245;BME280;56357;52.304;4.870;2023-02-28T08:54:44;103475.44;;;17.34;51.24
69245;BME280;56357;52.304;4.870;2023-02-28T08:57:11;103462.69;;;17.38;51.23
69245;BME280;56357;52.304;4.870;2023-02-28T08:59:37;103462.03;;;17.30;50.92
69245;BME280;56357;52.304;4.870;2023-02-28T09:02:04;103463.28;;;17.08;51.35
69245;BME280;56357;52.304;4.870;2023-02-28T09:04:30;103466.06;;;17.08;50.52
69245;BME280;56357;52.304;4.870;2023-02-28T09:06:57;103466.28;;;17.06;50.82
69245;BME280;56357;52.304;4.870;2023-02-28T09:09:23;103469.69;;;16.95;51.32
69245;BME280;56357;52.304;4.870;2023-02-28T09:11:50;103458.34;;;17.16;52.02
69245;BME280;56357;52.304;4.870;2023-02-28T09:14:16;103469.34;;;17.11;51.82
69245;BME280;56357;52.304;4.870;2023-02-28T09:16:43;103476.47;;;17.27;51.24
69245;BME280;56357;52.304;4.870;2023-02-28T09:19:11;103473.38;;;17.02;50.65
69245;BME280;56357;52.304;4.870;2023-02-28T09:21:38;103477.63;;;16.85;50.20
69245;BME280;56357;52.304;4.870;2023-02-28T09:24:04;103477.56;;;16.72;46.62
69245;BME280;56357;52.304;4.870;2023-02-28T09:26:31;103468.31;;;16.72;46.35
69245;BME280;56357;52.304;4.870;2023-02-28T09:28:57;103473.94;;;16.85;46.40
69245;BME280;56357;52.304;4.870;2023-02-28T09:31:27;103480.69;;;16.97;46.55
69245;BME280;56357;52.304;4.870;2023-02-28T09:33:56;103488.59;;;16.80;46.84
69245;BME280;56357;52.304;4.870;2023-02-28T09:36:25;103489.00;;;16.77;47.18
69245;BME280;56357;52.304;4.870;2023-02-28T09:38:52;103488.91;;;17.05;46.73
69245;BME280;56357;52.304;4.870;2023-02-28T09:41:23;103484.41;;;17.10;46.33
69245;BME280;56357;52.304;4.870;2023-02-28T09:43:56;103485.88;;;17.00;46.37
69245;BME280;56357;52.304;4.870;2023-02-28T09:46:32;103490.31;;;16.81;41.74
69245;BME280;56357;52.304;4.870;2023-02-28T09:49:05;103494.31;;;16.59;44.88
69245;BME280;56357;52.304;4.870;2023-02-28T09:54:31;103482.47;;;16.64;43.37
69245;BME280;56357;52.304;4.870;2023-02-28T10:04:54;103491.78;;;16.71;42.50
69245;BME280;56357;52.304;4.870;2023-02-28T10:10:29;103490.84;;;16.57;41.70
69245;BME280;56357;52.304;4.870;2023-02-28T10:12:59;103485.69;;;16.61;42.29
69245;BME280;56357;52.304;4.870;2023-02-28T10:15:30;103494.09;;;16.61;42.66
69245;BME280;56357;52.304;4.870;2023-02-28T10:18:00;103493.19;;;16.54;43.22
69245;BME280;56357;52.304;4.870;2023-02-28T10:20:29;103498.81;;;16.60;43.28
69245;BME280;56357;52.304;4.870;2023-02-28T10:23:05;103495.47;;;16.78;43.34
69245;BME280;56357;52.304;4.870;2023-02-28T10:25:36;103495.69;;;16.76;43.70
69245;BME280;56357;52.304;4.870;2023-02-28T10:28:15;103499.34;;;16.77;43.79
69245;BME280;56357;52.304;4.870;2023-02-28T10:30:53;103489.47;;;16.81;44.06
69245;BME280;56357;52.304;4.870;2023-02-28T10:33:34;103496.09;;;16.73;44.47
69245;BME280;56357;52.304;4.870;2023-02-28T10:36:03;103500.84;;;16.73;45.24
69245;BME280;56357;52.304;4.870;2023-02-28T10:38:37;103501.53;;;16.88;45.19
69245;BME280;56357;52.304;4.870;2023-02-28T10:41:12;103504.31;;;16.81;45.86
69245;BME280;56357;52.304;4.870;2023-02-28T10:43:40;103506.44;;;16.73;46.04
69245;BME280;56357;52.304;4.870;2023-02-28T10:48:45;103492.53;;;16.99;46.18
69245;BME280;56357;52.304;4.870;2023-02-28T10:51:16;103486.53;;;17.08;46.10
69245;BME280;56357;52.304;4.870;2023-02-28T10:53:51;103490.00;;;17.10;46.21
69245;BME280;56357;52.304;4.870;2023-02-28T10:56:24;103499.25;;;17.11;46.72
69245;BME280;56357;52.304;4.870;2023-02-28T11:03:56;103480.13;;;17.21;47.74
69245;BME280;56357;52.304;4.870;2023-02-28T11:06:28;103484.91;;;17.40;47.57
69245;BME280;56357;52.304;4.870;2023-02-28T11:08:58;103467.31;;;17.59;47.13
69245;BME280;56357;52.304;4.870;2023-02-28T11:11:28;103465.72;;;17.37;48.08
69245;BME280;56357;52.304;4.870;2023-02-28T11:14:03;103471.31;;;17.37;47.91
69245;BME280;56357;52.304;4.870;2023-02-28T11:16:35;103470.25;;;17.38;48.05
69245;BME280;56357;52.304;4.870;2023-02-28T11:19:04;103458.88;;;17.53;47.78
69245;BME280;56357;52.304;4.870;2023-02-28T11:21:35;103451.56;;;17.65;47.40
69245;BME280;56357;52.304;4.870;2023-02-28T11:26:48;103457.09;;;17.45;47.64
69245;BME280;56357;52.304;4.870;2023-02-28T11:32:09;103461.63;;;17.39;47.86
69245;BME280;56357;52.304;4.870;2023-02-28T11:34:39;103448.75;;;17.52;47.61
69245;BME280;56357;52.304;4.870;2023-02-28T11:37:11;103457.75;;;17.47;47.66
69245;BME280;56357;52.304;4.870;2023-02-28T11:39:38;103450.47;;;17.59;47.36
69245;BME280;56357;52.304;4.870;2023-02-28T11:45:37;103447.03;;;17.57;47.27
69245;BME280;56357;52.304;4.870;2023-02-28T11:48:30;103447.25;;;17.62;47.18
69245;BME280;56357;52.304;4.870;2023-02-28T11:51:18;103444.00;;;17.52;47.54
69245;BME280;56357;52.304;4.870;2023-02-28T11:56:57;103439.47;;;17.64;47.19
69245;BME280;56357;52.304;4.870;2023-02-28T11:59:38;103433.88;;;17.64;47.49
69245;BME280;56357;52.304;4.870;2023-02-28T12:02:23;103439.91;;;17.74;47.14
69245;BME280;56357;52.304;4.870;2023-02-28T12:07:49;103434.97;;;17.76;47.27
69245;BME280;56357;52.304;4.870;2023-02-28T12:10:26;103436.25;;;17.74;47.27
69245;BME280;56357;52.304;4.870;2023-02-28T12:23:58;103419.22;;;17.75;47.67
69245;BME280;56357;52.304;4.870;2023-02-28T12:26:47;103412.53;;;17.76;47.97
69245;BME280;56357;52.304;4.870;2023-02-28T12:29:30;103413.19;;;17.78;47.66
69245;BME280;56357;52.304;4.870;2023-02-28T12:32:14;103403.47;;;17.87;47.93
69245;BME280;56357;52.304;4.870;2023-02-28T12:35:13;103404.53;;;17.99;48.29
69245;BME280;56357;52.304;4.870;2023-02-28T12:37:44;103406.69;;;17.97;48.43
69245;BME280;56357;52.304;4.870;2023-02-28T12:40:20;103403.88;;;17.97;48.26
69245;BME280;56357;52.304;4.870;2023-02-28T12:42:53;103399.94;;;18.18;48.96
69245;BME280;56357;52.304;4.870;2023-02-28T12:45:26;103397.09;;;18.31;48.14
69245;BME280;56357;52.304;4.870;2023-02-28T12:48:03;103401.22;;;18.28;48.47
69245;BME280;56357;52.304;4.870;2023-02-28T12:50:30;103395.13;;;18.45;48.24
69245;BME280;56357;52.304;4.870;2023-02-28T12:53:25;103396.25;;;18.24;48.87
69245;BME280;56357;52.304;4.870;2023-02-28T13:09:52;103384.69;;;18.01;48.28
69245;BME280;56357;52.304;4.870;2023-02-28T13:12:19;103369.38;;;17.97;48.18
69245;BME280;56357;52.304;4.870;2023-02-28T13:14:48;103371.34;;;17.90;48.24
69245;BME280;56357;52.304;4.870;2023-02-28T13:17:22;103368.31;;;17.85;48.38
69245;BME280;56357;52.304;4.870;2023-02-28T13:22:43;103378.00;;;17.95;48.01
69245;BME280;56357;52.304;4.870;2023-02-28T13:27:51;103375.84;;;17.97;48.17
69245;BME280;56357;52.304;4.870;2023-02-28T13:38:50;103354.47;;;18.09;48.25
69245;BME280;56357;52.304;4.870;2023-02-28T13:41:43;103360.72;;;18.11;48.05
69245;BME280;56357;52.304;4.870;2023-02-28T13:57:42;103355.53;;;18.08;48.50
69245;BME280;56357;52.304;4.870;2023-02-28T14:00:39;103351.47;;;17.98;49.13
69245;BME280;56357;52.304;4.870;2023-02-28T14:06:25;103348.25;;;17.88;49.16
69245;BME280;56357;52.304;4.870;2023-02-28T14:11:36;103342.44;;;17.89;49.02
69245;BME280;56357;52.304;4.870;2023-02-28T14:14:04;103336.81;;;17.89;49.49
69245;BME280;56357;52.304;4.870;2023-02-28T14:19:28;103340.50;;;17.90;49.80
69245;BME280;56357;52.304;4.870;2023-02-28T14:27:43;103334.44;;;17.99;49.13
69245;BME280;56357;52.304;4.870;2023-02-28T14:30:40;103334.78;;;18.16;48.84
69245;BME280;56357;52.304;4.870;2023-02-28T14:36:00;103328.06;;;18.23;48.76
69245;BME280;56357;52.304;4.870;2023-02-28T14:38:35;103331.09;;;18.28;48.89
69245;BME280;56357;52.304;4.870;2023-02-28T14:41:06;103336.25;;;18.32;48.71
69245;BME280;56357;52.304;4.870;2023-02-28T14:43:48;103333.63;;;18.37;48.78
69245;BME280;56357;52.304;4.870;2023-02-28T14:46:16;103331.28;;;18.34;48.52
69245;BME280;56357;52.304;4.870;2023-02-28T14:48:46;103329.97;;;18.43;48.46
69245;BME280;56357;52.304;4.870;2023-02-28T14:51:18;103341.63;;;18.40;48.41
69245;BME280;56357;52.304;4.870;2023-02-28T14:53:49;103324.56;;;18.48;48.22
69245;BME280;56357;52.304;4.870;2023-02-28T14:56:22;103334.91;;;18.54;48.11
69245;BME280;56357;52.304;4.870;2023-02-28T14:58:54;103332.28;;;18.52;48.38
69245;BME280;56357;52.304;4.870;2023-02-28T15:01:23;103326.91;;;18.51;47.98
69245;BME280;56357;52.304;4.870;2023-02-28T15:03:58;103322.09;;;18.64;48.04
69245;BME280;56357;52.304;4.870;2023-02-28T15:06:24;103331.16;;;18.60;47.63
69245;BME280;56357;52.304;4.870;2023-02-28T15:09:14;103328.09;;;18.68;47.68
69245;BME280;56357;52.304;4.870;2023-02-28T15:11:42;103330.28;;;18.66;47.28
69245;BME280;56357;52.304;4.870;2023-02-28T15:14:18;103333.34;;;18.58;47.48
69245;BME280;56357;52.304;4.870;2023-02-28T15:16:51;103332.66;;;18.62;47.01
69245;BME280;56357;52.304;4.870;2023-02-28T15:21:52;103322.53;;;18.61;47.05